Time;durP1;ratioP1;P1;durP2;ratioP2;P2;SDS_P1;SDS_P2;PMS_P1;PMS_P2;Temp;Humidity;BMP_temperature;BMP_pressure;BME280_temperature;BME280_humidity;BME280_pressure;Samples;Min_cycle;Max_cycle;Signal;HPM_P1;HPM_P2
2022/06/05 00:03:03;;;;;;;5.90;3.40;;;;;;;18.20;100.00;91197.63;5032221;28;20553;-66
2022/06/05 00:05:38;;;;;;;4.45;3.35;;;;;;;18.15;100.00;91192.53;4990503;28;20049;-67
2022/06/05 00:08:10;;;;;;;4.30;3.05;;;;;;;18.09;100.00;91193.09;5029294;28;20419;-66
2022/06/05 00:10:47;;;;;;;4.45;3.17;;;;;;;18.14;100.00;91190.94;5031990;28;20491;-66
2022/06/05 00:13:28;;;;;;;4.65;3.20;;;;;;;18.17;100.00;91190.25;5031995;28;20052;-66
2022/06/05 00:15:53;;;;;;;4.40;3.45;;;;;;;18.25;100.00;91191.97;5032233;28;20029;-67
2022/06/05 00:18:19;;;;;;;7.28;4.05;;;;;;;18.20;100.00;91189.56;5031864;28;20052;-67
2022/06/05 00:20:45;;;;;;;6.90;3.08;;;;;;;18.12;100.00;91193.19;5031868;28;20028;-66
2022/06/05 00:23:11;;;;;;;6.43;3.70;;;;;;;18.10;100.00;91195.44;5031884;28;20072;-66
2022/06/05 00:25:42;;;;;;;6.18;3.95;;;;;;;18.00;100.00;91193.28;5031819;28;20028;-66
2022/06/05 00:28:22;;;;;;;5.50;3.60;;;;;;;18.03;100.00;91192.59;5031819;28;20120;-67
2022/06/05 00:30:47;;;;;;;5.50;4.13;;;;;;;18.02;100.00;91182.19;5031967;28;20037;-67
2022/06/05 00:33:23;;;;;;;4.50;3.75;;;;;;;17.92;100.00;91196.94;5031652;28;20456;-67
2022/06/05 00:35:58;;;;;;;7.15;4.68;;;;;;;17.75;100.00;91206.13;5031989;28;20104;-67
2022/06/05 00:38:59;;;;;;;6.15;3.90;;;;;;;17.65;100.00;91212.72;5031535;28;20086;-67
2022/06/05 00:41:58;;;;;;;5.78;3.88;;;;;;;17.51;100.00;91217.72;5000240;28;20411;-67
2022/06/05 00:44:27;;;;;;;7.75;4.30;;;;;;;17.28;100.00;91224.78;5031565;28;20034;-67
2022/06/05 00:46:52;;;;;;;5.88;4.05;;;;;;;17.13;100.00;91217.44;5031699;28;20483;-67
2022/06/05 00:49:21;;;;;;;6.35;4.18;;;;;;;17.08;100.00;91221.16;5031313;28;20087;-67
2022/06/05 00:51:47;;;;;;;7.40;4.65;;;;;;;16.97;100.00;91220.84;5031393;28;20025;-67
2022/06/05 00:54:12;;;;;;;5.85;4.03;;;;;;;16.96;100.00;91215.81;5031442;28;20051;-67
2022/06/05 00:56:38;;;;;;;5.75;3.47;;;;;;;16.94;100.00;91210.78;5031375;28;20052;-67
2022/06/05 00:59:04;;;;;;;5.70;4.35;;;;;;;17.03;100.00;91224.06;5031228;28;20497;-67
2022/06/05 01:01:31;;;;;;;5.88;4.28;;;;;;;17.03;100.00;91216.78;5030406;28;20487;-67
2022/06/05 01:04:01;;;;;;;4.22;3.67;;;;;;;17.08;100.00;91218.47;5031248;28;20474;-67
2022/06/05 01:06:28;;;;;;;6.50;4.05;;;;;;;17.15;100.00;91221.34;5031289;28;20026;-67
2022/06/05 01:08:54;;;;;;;4.28;3.50;;;;;;;17.21;100.00;91220.00;5030991;28;20076;-67
2022/06/05 01:11:27;;;;;;;4.53;3.30;;;;;;;17.22;100.00;91221.56;5031207;28;20053;-67
2022/06/05 01:13:52;;;;;;;5.22;3.65;;;;;;;17.22;100.00;91213.50;5031263;28;20068;-67
2022/06/05 01:16:34;;;;;;;4.53;3.50;;;;;;;17.20;100.00;91212.25;5031183;28;20061;-67
2022/06/05 01:19:33;;;;;;;3.75;3.30;;;;;;;17.18;100.00;91209.91;5031012;28;20075;-67
2022/06/05 01:22:37;;;;;;;5.65;4.03;;;;;;;17.20;100.00;91212.25;5031056;28;20068;-67
2022/06/05 01:25:17;;;;;;;6.03;4.28;;;;;;;17.28;100.00;91214.81;5031067;28;20017;-67
2022/06/05 01:27:52;;;;;;;5.95;3.58;;;;;;;17.34;100.00;91213.44;5031017;28;20113;-68
2022/06/05 01:30:20;;;;;;;5.82;4.28;;;;;;;17.38;100.00;91213.56;5031034;28;20406;-67
2022/06/05 01:33:07;;;;;;;4.60;3.55;;;;;;;17.49;100.00;91214.59;5030992;28;20040;-67
2022/06/05 01:35:41;;;;;;;7.32;3.78;;;;;;;17.56;100.00;91201.38;5031230;28;20060;-67
2022/06/05 01:38:16;;;;;;;6.65;3.80;;;;;;;17.41;100.00;91209.41;5030881;28;20025;-68
2022/06/05 01:40:48;;;;;;;5.20;3.38;;;;;;;17.22;100.00;91208.13;5030913;28;20060;-67
2022/06/05 01:43:19;;;;;;;5.07;3.42;;;;;;;17.26;100.00;91217.06;5030877;28;20033;-67
2022/06/05 01:46:01;;;;;;;6.95;3.92;;;;;;;17.21;100.00;91203.09;5030892;28;20091;-67
2022/06/05 01:48:44;;;;;;;6.07;3.22;;;;;;;17.17;100.00;91210.25;5030824;28;20120;-67
2022/06/05 01:51:19;;;;;;;7.25;3.47;;;;;;;17.14;100.00;91208.25;5030896;28;20025;-66
2022/06/05 01:53:47;;;;;;;4.85;3.40;;;;;;;17.06;100.00;91201.91;5030727;28;20120;-66
2022/06/05 01:56:19;;;;;;;4.80;3.50;;;;;;;17.03;100.00;91203.34;5030798;28;20079;-66
2022/06/05 01:58:50;;;;;;;6.45;4.00;;;;;;;17.01;100.00;91210.19;5030727;28;20503;-67
2022/06/05 02:01:21;;;;;;;3.65;2.80;;;;;;;16.96;100.00;91205.84;5030624;28;20075;-67
2022/06/05 02:06:29;;;;;;;4.65;4.00;;;;;;;16.76;100.00;91209.50;5145788;23;20535;-67
2022/06/05 02:09:02;;;;;;;5.82;3.83;;;;;;;16.62;100.00;91207.13;5011244;28;20034;-67
2022/06/05 02:11:30;;;;;;;;;;;;;;;16.53;100.00;91211.81;5011363;28;20024;-67
2022/06/05 02:14:00;;;;;;;4.88;3.70;;;;;;;16.40;100.00;91210.25;5014216;28;19927;-67
2022/06/05 02:16:28;;;;;;;6.80;4.13;;;;;;;16.32;100.00;91206.59;5014395;28;20514;-67
2022/06/05 02:18:54;;;;;;;5.18;3.75;;;;;;;16.25;100.00;91205.56;5014371;28;20076;-67
2022/06/05 02:21:20;;;;;;;6.15;4.20;;;;;;;16.18;100.00;91198.09;5014367;28;20034;-67
2022/06/05 02:23:46;;;;;;;7.05;3.85;;;;;;;16.15;100.00;91199.53;5014385;28;20033;-67
2022/06/05 02:26:11;;;;;;;5.97;3.95;;;;;;;16.21;100.00;91204.69;5014158;28;20518;-67
2022/06/05 02:28:38;;;;;;;6.40;3.83;;;;;;;16.21;100.00;91207.38;4996673;28;20423;-67
2022/06/05 02:31:50;;;;;;;6.22;4.10;;;;;;;16.26;100.00;91205.25;5014275;28;20033;-67
2022/06/05 02:34:40;;;;;;;4.95;3.97;;;;;;;16.39;100.00;91208.69;5000960;28;20073;-68
2022/06/05 02:37:39;;;;;;;4.88;3.60;;;;;;;16.44;100.00;91205.81;5014094;28;20484;-68
2022/06/05 02:40:41;;;;;;;6.70;3.95;;;;;;;16.41;100.00;91201.91;5014012;28;20045;-67
2022/06/05 02:43:20;;;;;;;7.47;3.92;;;;;;;16.50;100.00;91200.97;5013971;28;20038;-67
2022/06/05 02:46:15;;;;;;;6.20;3.60;;;;;;;16.49;100.00;91192.13;5013873;28;20554;-67
2022/06/05 02:49:05;;;;;;;4.88;3.65;;;;;;;16.44;100.00;91203.91;5013872;28;20037;-66
2022/06/05 02:51:37;;;;;;;6.47;4.35;;;;;;;16.36;100.00;91206.69;5013899;28;20138;-67
2022/06/05 02:54:02;;;;;;;5.80;3.55;;;;;;;16.33;100.00;91202.00;5013838;28;20092;-67
2022/06/05 02:56:30;;;;;;;4.32;3.72;;;;;;;16.31;100.00;91205.03;5013654;28;20513;-67
2022/06/05 02:58:59;;;;;;;6.57;4.10;;;;;;;16.38;100.00;91204.44;5013722;28;20034;-67
2022/06/05 03:04:08;;;;;;;5.82;3.95;;;;;;;16.50;100.00;91190.22;5013533;28;20414;-66
2022/06/05 03:06:36;;;;;;;4.47;3.53;;;;;;;16.62;100.00;91196.38;5013146;28;20045;-66
2022/06/05 03:09:01;;;;;;;6.30;4.03;;;;;;;16.64;100.00;91193.34;5013534;28;20033;-66
2022/06/05 03:11:27;;;;;;;5.28;3.40;;;;;;;16.72;100.00;91192.47;5013638;28;20033;-66
2022/06/05 03:13:52;;;;;;;5.47;3.75;;;;;;;16.73;100.00;91196.72;5013467;28;20029;-66
2022/06/05 03:16:18;;;;;;;6.05;3.75;;;;;;;16.77;100.00;91192.25;5013220;28;20030;-66
2022/06/05 03:18:44;;;;;;;6.68;3.60;;;;;;;16.77;100.00;91190.34;5013311;28;20068;-66
2022/06/05 03:21:10;;;;;;;5.78;3.65;;;;;;;16.84;100.00;91191.66;5013195;28;20030;-66
2022/06/05 03:23:35;;;;;;;6.50;3.70;;;;;;;16.85;100.00;91193.22;5012547;28;20026;-67
2022/06/05 03:26:00;;;;;;;6.40;3.58;;;;;;;16.93;100.00;91195.78;5012802;28;20034;-66
2022/06/05 03:28:26;;;;;;;4.88;3.75;;;;;;;16.92;100.00;91186.16;5012996;28;20411;-66
2022/06/05 03:30:52;;;;;;;4.22;3.67;;;;;;;16.92;100.00;91186.16;5013090;28;20033;-67
2022/06/05 03:33:19;;;;;;;4.85;3.47;;;;;;;16.89;100.00;91197.59;5012953;28;20037;-67
2022/06/05 03:35:46;;;;;;;5.20;3.72;;;;;;;17.00;100.00;91195.97;5013094;28;20038;-66
2022/06/05 03:38:13;;;;;;;5.32;3.10;;;;;;;17.04;100.00;91190.69;5012907;28;20451;-66
2022/06/05 03:40:40;;;;;;;6.65;4.20;;;;;;;17.09;100.00;91184.31;5012840;28;20124;-67
2022/06/05 03:43:06;;;;;;;5.47;3.42;;;;;;;17.23;100.00;91190.09;5012838;28;20034;-67
2022/06/05 03:45:31;;;;;;;5.35;3.70;;;;;;;17.30;100.00;91191.06;5012750;28;20041;-67
2022/06/05 03:47:57;;;;;;;6.35;4.45;;;;;;;17.50;100.00;91191.97;5012783;28;20113;-67
2022/06/05 03:50:23;;;;;;;6.68;3.70;;;;;;;17.64;100.00;91200.41;5012915;28;20040;-66
2022/06/05 03:52:49;;;;;;;5.57;3.88;;;;;;;17.73;100.00;91212.97;5012685;28;20108;-66
2022/06/05 03:55:18;;;;;;;4.53;3.47;;;;;;;17.88;100.00;91196.06;5012558;28;20092;-67
2022/06/05 03:57:43;;;;;;;8.88;3.95;;;;;;;18.03;100.00;91194.50;5012578;28;20033;-67
2022/06/05 04:00:10;;;;;;;6.38;3.63;;;;;;;18.07;100.00;91206.13;5012529;28;20491;-67
2022/06/05 04:02:36;;;;;;;4.13;3.30;;;;;;;18.15;100.00;91199.81;5012468;28;20032;-67
2022/06/05 04:05:04;;;;;;;4.45;3.30;;;;;;;18.16;100.00;91206.75;5012195;28;20038;-66
2022/06/05 04:07:29;;;;;;;4.53;4.03;;;;;;;18.16;100.00;91201.38;5012679;28;20426;-66
2022/06/05 04:09:55;;;;;;;5.43;3.50;;;;;;;18.31;100.00;91205.97;5012382;28;20022;-66
2022/06/05 04:12:20;;;;;;;5.18;3.47;;;;;;;18.31;100.00;91200.59;5012343;28;20541;-66
2022/06/05 04:14:46;;;;;;;5.68;4.55;;;;;;;18.37;100.00;91209.19;5012297;28;20053;-66
2022/06/05 04:17:11;;;;;;;6.65;3.78;;;;;;;18.41;100.00;91207.34;5012292;28;20035;-66
2022/06/05 04:19:37;;;;;;;5.95;3.90;;;;;;;18.42;100.00;91204.28;5012252;28;20037;-67
2022/06/05 04:22:04;;;;;;;5.70;3.70;;;;;;;18.50;100.00;91203.34;5012210;28;20495;-66
2022/06/05 04:24:30;;;;;;;22.73;12.48;;;;;;;18.55;100.00;91204.97;5011918;28;20103;-66
2022/06/05 04:26:55;;;;;;;7.07;5.00;;;;;;;18.43;100.00;91191.59;5012046;28;20026;-66
2022/06/05 04:29:20;;;;;;;5.13;3.72;;;;;;;18.61;100.00;91208.97;5011979;28;20466;-66
2022/06/05 04:31:47;;;;;;;4.30;3.33;;;;;;;18.79;100.00;91202.13;5011998;28;20451;-66
2022/06/05 04:34:16;;;;;;;4.80;4.13;;;;;;;18.93;100.00;91209.69;5011885;28;20037;-66
2022/06/05 04:36:42;;;;;;;7.18;3.65;;;;;;;19.09;100.00;91206.97;5011875;28;20033;-66
2022/06/05 04:39:08;;;;;;;5.93;3.97;;;;;;;19.30;100.00;91191.22;5011991;28;20029;-66
2022/06/05 04:41:34;;;;;;;4.07;3.22;;;;;;;19.54;100.00;91200.16;5011877;28;20399;-66
2022/06/05 04:43:59;;;;;;;163.43;85.40;;;;;;;19.62;100.00;91191.88;5011789;28;20063;-67
2022/06/05 04:46:26;;;;;;;9.75;6.57;;;;;;;19.73;100.00;91206.38;5012011;28;20026;-66
2022/06/05 04:48:52;;;;;;;6.05;3.47;;;;;;;19.81;100.00;91199.16;5012085;28;20049;-66
2022/06/05 04:51:19;;;;;;;5.32;3.50;;;;;;;19.99;100.00;91208.38;5011823;28;20026;-66
2022/06/05 04:53:46;;;;;;;5.07;3.55;;;;;;;20.18;100.00;91195.94;5011779;28;20037;-66
2022/06/05 04:56:15;;;;;;;5.03;3.13;;;;;;;20.38;100.00;91200.16;5011607;28;20026;-66
2022/06/05 04:58:41;;;;;;;4.82;3.78;;;;;;;20.48;100.00;91196.84;5011605;28;20032;-66
2022/06/05 05:01:11;;;;;;;5.72;3.47;;;;;;;20.60;100.00;91202.06;5011557;28;20116;-67
2022/06/05 05:03:37;;;;;;;6.00;3.90;;;;;;;20.72;100.00;91194.91;5011631;28;20071;-67
2022/06/05 05:06:02;;;;;;;6.43;4.22;;;;;;;20.88;100.00;91196.31;5011348;28;20447;-67
2022/06/05 05:08:27;;;;;;;4.05;3.22;;;;;;;21.00;100.00;91198.03;5011546;28;20480;-67
2022/06/05 05:10:53;;;;;;;6.43;4.32;;;;;;;21.19;100.00;91203.31;5011600;28;20562;-67
2022/06/05 05:13:18;;;;;;;4.53;3.20;;;;;;;21.48;100.00;91206.41;5011558;28;20099;-67
2022/06/05 05:15:52;;;;;;;5.50;3.60;;;;;;;21.77;100.00;91202.06;5011460;28;20048;-65
2022/06/05 05:18:17;;;;;;;5.13;3.33;;;;;;;21.67;100.00;91208.94;5011649;28;20112;-66
2022/06/05 05:20:43;;;;;;;5.68;3.50;;;;;;;22.00;100.00;91207.38;5011372;28;20523;-66
2022/06/05 05:23:09;;;;;;;10.63;4.22;;;;;;;22.31;100.00;91208.88;5011448;28;20165;-67
2022/06/05 05:25:34;;;;;;;6.90;3.85;;;;;;;22.53;100.00;91207.09;5011341;28;20459;-67
2022/06/05 05:28:00;;;;;;;6.40;2.97;;;;;;;22.83;100.00;91207.75;5011435;28;20025;-67
2022/06/05 05:30:25;;;;;;;4.25;3.20;;;;;;;23.00;100.00;91201.69;5011331;28;20506;-67
2022/06/05 05:32:51;;;;;;;4.32;3.40;;;;;;;23.10;100.00;91210.28;5011352;28;20030;-67
2022/06/05 05:35:17;;;;;;;8.90;3.55;;;;;;;23.29;100.00;91218.91;5011267;28;20026;-68
2022/06/05 05:37:42;;;;;;;3.72;3.20;;;;;;;23.78;98.37;91216.84;5011266;28;20036;-67
2022/06/05 05:42:54;;;;;;;4.53;3.40;;;;;;;24.66;92.40;91213.59;5011508;28;20096;-67
2022/06/05 05:45:20;;;;;;;4.13;3.13;;;;;;;26.26;81.20;91217.91;5011143;28;20423;-67
2022/06/05 05:47:45;;;;;;;3.97;3.20;;;;;;;28.78;69.02;91220.13;5012797;28;20025;-67
2022/06/05 05:50:15;;;;;;;5.65;3.97;;;;;;;29.69;61.83;91223.78;5010501;28;20026;-67
2022/06/05 05:52:41;;;;;;;4.95;3.20;;;;;;;29.69;60.68;91229.28;4995363;28;20484;-67
2022/06/05 05:55:11;;;;;;;5.90;3.30;;;;;;;29.07;60.75;91222.47;5000561;28;20159;-67
2022/06/05 05:57:36;;;;;;;5.50;3.70;;;;;;;28.97;61.65;91228.88;5006336;28;20025;-67
2022/06/05 06:00:04;;;;;;;6.55;3.85;;;;;;;29.49;60.72;91226.47;5005974;28;20404;-68
2022/06/05 06:02:30;;;;;;;7.45;4.10;;;;;;;30.93;57.47;91226.00;5014325;28;20030;-67
2022/06/05 06:04:55;;;;;;;4.45;3.35;;;;;;;31.64;53.69;91218.00;5014466;28;20046;-67
2022/06/05 06:07:21;;;;;;;3.38;3.05;;;;;;;29.38;57.22;91225.88;5014757;28;20030;-67
2022/06/05 06:09:47;;;;;;;4.85;3.78;;;;;;;30.07;58.99;91230.53;5014423;28;20164;-66
2022/06/05 06:12:12;;;;;;;8.73;3.30;;;;;;;30.60;57.82;91236.09;5014479;28;20058;-67
2022/06/05 06:14:39;;;;;;;4.20;3.65;;;;;;;32.08;52.77;91225.50;5014493;28;20065;-68
2022/06/05 06:17:06;;;;;;;4.85;3.75;;;;;;;32.60;51.61;91226.41;5014569;28;20030;-68
2022/06/05 06:19:31;;;;;;;4.30;3.65;;;;;;;31.75;51.97;91227.56;5014434;28;20515;-68
2022/06/05 06:21:57;;;;;;;8.23;4.30;;;;;;;32.28;51.25;91228.13;5014692;28;20057;-68
2022/06/05 06:24:23;;;;;;;5.70;4.32;;;;;;;32.91;49.56;91229.47;5014315;28;20506;-67
2022/06/05 06:26:48;;;;;;;6.82;4.35;;;;;;;32.55;50.77;91221.47;5014363;28;20475;-67
2022/06/05 06:29:14;;;;;;;7.65;4.70;;;;;;;33.18;48.22;91223.50;5014302;28;20045;-65
2022/06/05 06:31:42;;;;;;;5.18;3.88;;;;;;;32.48;49.38;91228.72;5014490;28;20124;-65
2022/06/05 06:34:08;;;;;;;4.53;3.83;;;;;;;32.50;48.64;91213.72;5013910;28;20422;-66
2022/06/05 06:36:34;;;;;;;6.47;5.13;;;;;;;32.90;46.94;91216.91;5013927;28;20545;-66
2022/06/05 06:39:00;;;;;;;5.85;4.65;;;;;;;32.78;48.35;91215.63;5014042;28;20037;-67
2022/06/05 06:41:27;;;;;;;5.35;4.85;;;;;;;32.76;47.08;91216.06;5013876;28;20030;-66
2022/06/05 06:43:53;;;;;;;5.63;4.18;;;;;;;33.05;46.98;91220.75;5013826;28;20034;-67
2022/06/05 06:46:19;;;;;;;4.90;4.07;;;;;;;32.25;48.72;91219.94;5010662;28;20030;-67
2022/06/05 06:48:45;;;;;;;5.97;4.90;;;;;;;33.04;47.92;91221.97;5013746;28;20044;-66
2022/06/05 06:51:12;;;;;;;6.63;4.13;;;;;;;33.25;47.56;91218.53;5013738;28;20104;-69
2022/06/05 06:53:39;;;;;;;5.93;4.38;;;;;;;33.14;47.14;91215.34;5013667;28;20580;-66
2022/06/05 06:56:17;;;;;;;9.90;5.45;;;;;;;31.76;50.13;91211.81;5013667;28;20113;-67
2022/06/05 06:58:43;;;;;;;6.25;4.80;;;;;;;32.41;48.98;91214.38;5005457;28;20033;-67
2022/06/05 07:01:10;;;;;;;6.78;4.90;;;;;;;33.35;47.90;91213.91;5003036;28;20065;-66
2022/06/05 07:03:36;;;;;;;5.75;4.57;;;;;;;33.73;46.40;91211.06;4994018;28;20027;-67
2022/06/05 07:06:04;;;;;;;7.22;5.25;;;;;;;32.95;47.35;91216.34;5022316;28;20049;-66
2022/06/05 07:08:30;;;;;;;7.10;4.82;;;;;;;30.18;52.36;91215.81;5033264;28;20029;-67
2022/06/05 07:10:56;;;;;;;5.15;4.63;;;;;;;31.83;51.41;91215.16;5014884;28;20471;-65
2022/06/05 07:13:21;;;;;;;5.82;4.97;;;;;;;32.58;48.06;91212.31;5021417;28;20040;-66
2022/06/05 07:15:47;;;;;;;5.80;4.50;;;;;;;33.49;47.21;91207.16;5032934;28;20104;-66
2022/06/05 07:18:12;;;;;;;8.05;4.38;;;;;;;34.30;44.50;91211.09;5032963;28;20028;-66
2022/06/05 07:20:41;;;;;;;7.50;4.88;;;;;;;33.84;46.12;91213.47;5033010;28;20061;-66
2022/06/05 07:23:08;;;;;;;8.10;5.07;;;;;;;32.60;47.85;91210.66;5032982;28;20095;-65
2022/06/05 07:25:34;;;;;;;9.25;5.15;;;;;;;33.02;46.83;91205.09;5022469;28;20022;-65
2022/06/05 07:28:00;;;;;;;5.65;4.53;;;;;;;32.51;48.53;91207.81;5011332;28;20036;-64
2022/06/05 07:30:26;;;;;;;7.55;5.10;;;;;;;33.29;46.19;91204.63;5012387;28;20034;-64
2022/06/05 07:32:52;;;;;;;6.90;5.30;;;;;;;32.75;47.65;91205.50;5012708;28;20025;-65
2022/06/05 07:35:18;;;;;;;6.90;4.95;;;;;;;35.03;44.15;91208.78;5012218;28;20037;-65
2022/06/05 07:37:44;;;;;;;6.63;5.20;;;;;;;34.04;44.93;91202.91;5012854;28;20040;-65
2022/06/05 07:40:11;;;;;;;6.25;4.85;;;;;;;33.32;46.21;91203.75;5012707;28;20487;-65
2022/06/05 07:42:38;;;;;;;7.40;5.03;;;;;;;30.89;48.85;91200.56;5012777;28;20564;-64
2022/06/05 07:45:05;;;;;;;7.95;4.97;;;;;;;31.65;48.58;91198.31;4994542;28;20084;-67
2022/06/05 07:47:31;;;;;;;11.45;5.35;;;;;;;32.39;46.03;91195.53;5012630;28;20045;-65
2022/06/05 07:49:57;;;;;;;6.68;5.25;;;;;;;32.92;45.35;91186.91;4990949;28;20026;-64
2022/06/05 07:55:07;;;;;;;5.68;4.50;;;;;;;32.92;44.85;91193.19;4992068;28;20053;-64
2022/06/05 07:57:32;;;;;;;7.78;4.57;;;;;;;34.95;41.54;91194.47;4992807;28;20472;-65
2022/06/05 07:59:58;;;;;;;7.28;4.55;;;;;;;35.15;40.52;91199.63;4992677;28;20031;-65
2022/06/05 08:02:26;;;;;;;7.13;4.55;;;;;;;35.11;43.08;91193.47;4992535;28;20048;-65
2022/06/05 08:04:53;;;;;;;6.53;4.22;;;;;;;33.65;45.12;91193.22;4992293;28;20124;-66
2022/06/05 08:07:22;;;;;;;8.20;5.93;;;;;;;33.77;45.55;91195.19;4991707;28;20034;-65
2022/06/05 08:09:48;;;;;;;4.55;3.97;;;;;;;32.75;46.89;91191.72;4997651;28;20033;-65
2022/06/05 08:12:18;;;;;;;5.45;4.88;;;;;;;32.83;46.94;91195.84;5009021;28;20555;-64
2022/06/05 08:14:45;;;;;;;6.82;4.63;;;;;;;32.81;45.81;91198.25;5010484;28;20033;-64
2022/06/05 08:17:14;;;;;;;5.93;4.82;;;;;;;34.54;44.24;91201.13;5011421;28;20040;-64
2022/06/05 08:19:41;;;;;;;5.28;4.30;;;;;;;35.38;41.86;91196.34;5011934;28;20034;-64
2022/06/05 08:22:09;;;;;;;4.25;3.78;;;;;;;35.86;39.50;91185.69;5011496;28;20034;-64
2022/06/05 08:24:35;;;;;;;5.95;4.45;;;;;;;36.02;39.76;91192.16;5011674;28;20117;-65
2022/06/05 08:27:01;;;;;;;4.53;3.80;;;;;;;34.76;42.03;91188.06;5010459;28;20104;-65
2022/06/05 08:29:27;;;;;;;6.00;3.65;;;;;;;35.65;40.38;91198.38;4999909;28;20231;-66
2022/06/05 08:31:53;;;;;;;10.75;4.65;;;;;;;33.89;43.19;91186.09;4996509;28;20515;-66
2022/06/05 08:34:19;;;;;;;7.32;4.43;;;;;;;33.55;44.69;91191.59;5008520;28;20480;-66
2022/06/05 08:36:45;;;;;;;5.93;4.55;;;;;;;35.47;41.38;91183.75;5007628;28;20030;-67
2022/06/05 08:42:10;;;;;;;4.43;3.88;;;;;;;36.98;37.83;91202.53;4992045;28;20580;-66
2022/06/05 08:44:41;;;;;;;5.50;4.57;;;;;;;36.73;38.70;91198.09;4998337;28;20411;-66
2022/06/05 08:47:20;;;;;;;7.38;4.00;;;;;;;36.72;39.01;91193.78;5008272;28;20045;-67
2022/06/05 08:50:01;;;;;;;6.32;4.22;;;;;;;37.12;38.29;91198.31;5010537;28;20045;-69
2022/06/05 08:52:27;;;;;;;5.07;4.22;;;;;;;35.93;40.37;91204.75;5007166;28;20076;-68
2022/06/05 08:55:05;;;;;;;7.00;4.30;;;;;;;33.71;42.97;91198.94;5006768;28;20111;-66
2022/06/05 08:57:37;;;;;;;5.05;4.50;;;;;;;33.67;43.53;91193.53;5010903;28;20038;-66
2022/06/05 09:00:20;;;;;;;4.82;4.38;;;;;;;35.13;40.60;91205.59;5011372;28;20036;-67
2022/06/05 09:03:13;;;;;;;5.18;4.30;;;;;;;35.15;40.47;91198.84;5010362;28;20034;-66
2022/06/05 09:05:47;;;;;;;4.25;3.85;;;;;;;36.35;38.91;91187.56;4990079;28;20492;-69
2022/06/05 09:08:19;;;;;;;4.70;4.20;;;;;;;36.59;38.53;91195.97;4991778;28;20080;-67
2022/06/05 09:10:48;;;;;;;4.85;3.88;;;;;;;36.72;37.94;91193.78;4991664;28;20496;-67
2022/06/05 09:13:14;;;;;;;5.30;4.78;;;;;;;35.90;38.89;91204.91;4991648;28;20412;-67
2022/06/05 09:15:42;;;;;;;4.20;3.80;;;;;;;36.02;37.50;91197.69;4991544;28;20496;-67
2022/06/05 09:18:17;;;;;;;5.10;3.95;;;;;;;34.56;38.82;91198.72;4991634;28;20023;-67
2022/06/05 09:20:51;;;;;;;4.45;3.78;;;;;;;35.84;36.56;91192.91;4991156;28;20077;-67
2022/06/05 09:23:27;;;;;;;4.10;3.70;;;;;;;37.26;35.73;91192.09;4998792;28;20037;-67
2022/06/05 09:26:16;;;;;;;5.53;4.05;;;;;;;37.13;36.12;91188.75;5015027;28;20034;-68
2022/06/05 09:29:24;;;;;;;5.28;3.83;;;;;;;39.67;34.30;91193.91;5010385;28;20033;-69
2022/06/05 09:32:51;;;;;;;4.40;4.00;;;;;;;37.84;34.80;91190.13;4937801;29;20106;-68
2022/06/05 09:35:41;;;;;;;3.53;3.17;;;;;;;37.03;34.85;91182.47;4972133;28;20031;-68
2022/06/05 09:38:25;;;;;;;2.83;2.30;;;;;;;38.02;31.54;91179.63;4972963;28;20396;-70
2022/06/05 09:41:10;;;;;;;4.07;2.72;;;;;;;38.78;31.14;91180.09;4987305;28;20152;-68
2022/06/05 09:44:12;;;;;;;3.20;2.80;;;;;;;38.74;32.14;91175.97;4964185;28;20047;-68
2022/06/05 09:46:44;;;;;;;4.32;3.58;;;;;;;37.68;35.19;91169.81;5014810;28;20026;-66
2022/06/05 09:49:13;;;;;;;3.63;2.90;;;;;;;33.81;37.88;91167.44;5014933;28;20025;-64
2022/06/05 09:51:40;;;;;;;4.13;3.17;;;;;;;34.32;38.59;91172.75;5014487;28;20112;-65
2022/06/05 09:54:29;;;;;;;2.60;2.20;;;;;;;36.24;32.73;91170.59;5014573;28;20037;-65
2022/06/05 10:00:29;;;;;;;2.30;2.10;;;;;;;34.40;34.40;91168.50;5014942;28;20127;-64
2022/06/05 10:03:00;;;;;;;1.80;1.70;;;;;;;35.18;33.42;91171.03;5001635;28;20052;-65
2022/06/05 10:05:32;;;;;;;3.95;2.28;;;;;;;35.76;33.21;91175.81;5013967;28;20058;-65
2022/06/05 10:08:28;;;;;;;1.52;1.42;;;;;;;36.73;32.46;91161.28;5014790;28;20441;-65
2022/06/05 10:10:58;;;;;;;2.47;1.73;;;;;;;38.79;30.26;91170.50;5006536;28;20085;-65
2022/06/05 10:13:43;;;;;;;2.33;1.98;;;;;;;37.24;31.60;91174.34;5014066;28;20034;-63
2022/06/05 10:16:18;;;;;;;1.75;1.65;;;;;;;34.76;34.01;91167.94;5013479;28;20041;-65
2022/06/05 10:19:16;;;;;;;2.00;1.65;;;;;;;36.45;31.61;91168.88;5014375;28;20022;-67
2022/06/05 10:21:50;;;;;;;2.40;2.20;;;;;;;34.64;33.73;91172.34;5014173;28;20029;-67
2022/06/05 10:24:34;;;;;;;2.05;1.88;;;;;;;36.19;30.25;91162.91;5014211;28;20499;-67
2022/06/05 10:27:02;;;;;;;1.70;1.60;;;;;;;34.60;32.83;91165.41;5014400;28;20484;-67
2022/06/05 10:29:39;;;;;;;1.50;1.40;;;;;;;35.95;30.80;91160.75;5014319;28;20033;-67
2022/06/05 10:32:13;;;;;;;1.75;1.65;;;;;;;37.47;30.71;91162.56;5014298;28;20818;-67
2022/06/05 10:34:54;;;;;;;4.03;1.50;;;;;;;36.66;31.05;91161.63;5013794;28;20018;-67
2022/06/05 10:37:25;;;;;;;1.90;1.58;;;;;;;36.77;32.00;91150.78;5014145;28;20116;-67
2022/06/05 10:40:14;;;;;;;2.42;2.08;;;;;;;38.32;31.01;91149.16;5014143;28;20057;-67
2022/06/05 10:42:45;;;;;;;2.38;1.80;;;;;;;36.80;31.77;91145.13;5013210;28;20073;-67
2022/06/05 10:45:31;;;;;;;1.83;1.73;;;;;;;34.90;34.03;91150.06;5013953;28;20033;-67
2022/06/05 10:47:56;;;;;;;3.40;1.60;;;;;;;35.68;31.64;91147.66;5013985;28;20050;-68
2022/06/05 10:50:32;;;;;;;1.95;1.60;;;;;;;36.99;30.74;91148.59;5013918;28;20157;-68
2022/06/05 10:53:20;;;;;;;3.10;2.05;;;;;;;36.45;31.50;91138.41;5013873;28;20030;-67
2022/06/05 10:55:48;;;;;;;2.22;2.00;;;;;;;36.86;31.90;91137.69;5013826;28;20108;-67
2022/06/05 10:58:24;;;;;;;1.80;1.60;;;;;;;37.96;30.85;91137.09;5013848;28;20034;-67
2022/06/05 11:00:50;;;;;;;4.15;1.88;;;;;;;38.78;30.20;91132.78;5013688;28;20037;-68
2022/06/05 11:03:24;;;;;;;1.70;1.60;;;;;;;38.79;29.20;91128.75;5013711;28;20037;-68
2022/06/05 11:06:14;;;;;;;1.80;1.70;;;;;;;38.14;30.19;91130.63;5013513;28;20308;-66
2022/06/05 11:08:44;;;;;;;1.85;1.75;;;;;;;37.60;31.28;91127.00;5013506;28;20033;-65
2022/06/05 11:14:14;;;;;;;2.00;1.90;;;;;;;36.37;32.44;91124.13;5013637;28;20068;-66
2022/06/05 11:17:07;;;;;;;3.45;2.13;;;;;;;35.32;33.89;91125.44;5013346;28;20539;-66
2022/06/05 11:19:58;;;;;;;1.77;1.60;;;;;;;35.28;34.09;91125.59;5013276;28;20467;-66
2022/06/05 11:22:29;;;;;;;2.00;1.80;;;;;;;33.87;35.77;91127.03;4995542;28;20515;-66
2022/06/05 11:25:11;;;;;;;1.65;1.55;;;;;;;33.43;35.30;91121.44;5013237;28;20030;-65
2022/06/05 11:27:42;;;;;;;1.90;1.52;;;;;;;35.50;33.86;91119.19;5013318;28;20384;-65
2022/06/05 11:30:08;;;;;;;2.97;1.60;;;;;;;35.94;32.92;91120.44;5013237;28;20148;-65
2022/06/05 11:32:58;;;;;;;2.15;1.90;;;;;;;33.21;35.78;91120.59;5013034;28;20049;-65
2022/06/05 11:35:29;;;;;;;2.42;1.80;;;;;;;32.41;37.10;91123.50;5012946;28;20064;-66
2022/06/05 11:38:17;;;;;;;1.45;1.35;;;;;;;33.57;35.31;91117.41;5013014;28;20041;-66
2022/06/05 11:40:46;;;;;;;1.67;1.58;;;;;;;33.85;35.37;91113.69;5012888;28;20064;-66
2022/06/05 11:43:37;;;;;;;2.53;1.70;;;;;;;34.72;34.10;91110.06;5012967;28;20022;-66
2022/06/05 11:46:06;;;;;;;1.70;1.60;;;;;;;34.52;34.17;91117.94;5012255;28;20028;-66
2022/06/05 11:48:36;;;;;;;2.13;1.77;;;;;;;34.56;33.22;91109.50;4995244;28;20026;-66
2022/06/05 11:51:23;;;;;;;2.20;1.83;;;;;;;34.28;34.93;91111.34;5012833;28;20030;-66
2022/06/05 11:54:16;;;;;;;3.35;1.77;;;;;;;34.66;35.02;91108.31;5012687;28;20065;-66
2022/06/05 11:57:21;;;;;;;1.60;1.50;;;;;;;35.78;32.67;91103.38;5012740;28;20041;-66
2022/06/05 12:00:16;;;;;;;3.78;1.60;;;;;;;36.65;33.66;91108.19;4998387;28;20030;-66
2022/06/05 12:02:51;;;;;;;2.63;2.20;;;;;;;34.74;35.11;91104.84;5012739;28;20056;-66
2022/06/05 12:05:20;;;;;;;2.63;2.05;;;;;;;33.45;36.46;91091.41;5012217;28;20188;-66
2022/06/05 12:07:48;;;;;;;2.08;1.88;;;;;;;31.46;38.55;91086.47;5012481;28;20036;-66
2022/06/05 12:10:28;;;;;;;2.05;1.80;;;;;;;29.44;40.30;91101.63;4994896;28;20034;-66
2022/06/05 12:13:13;;;;;;;2.00;1.70;;;;;;;30.52;39.17;91094.69;5012475;28;20084;-66